createdAt,value
2024-03-09T00:02:02.293Z,22.50
2024-03-09T00:07:07.061Z,22.40
2024-03-09T00:12:15.498Z,22.40
2024-03-09T00:17:19.490Z,22.30
2024-03-09T00:22:23.438Z,22.50
2024-03-09T00:27:27.547Z,22.60
2024-03-09T00:32:31.404Z,22.80
2024-03-09T00:37:37.116Z,23.00
2024-03-09T00:42:42.051Z,23.10
2024-03-09T00:47:49.022Z,23.20
2024-03-09T00:52:54.000Z,23.10
2024-03-09T00:57:58.029Z,22.90
2024-03-09T01:03:03.886Z,22.80
2024-03-09T01:08:07.949Z,22.80
2024-03-09T01:13:12.554Z,22.70
2024-03-09T01:18:16.527Z,22.60
2024-03-09T01:23:20.503Z,22.50
2024-03-09T01:28:25.496Z,22.40
2024-03-09T01:33:29.894Z,22.50
2024-03-09T01:38:33.666Z,22.60
2024-03-09T01:43:37.583Z,22.60
2024-03-09T01:48:42.606Z,22.80
2024-03-09T01:53:54.723Z,22.80
2024-03-09T01:58:58.810Z,22.80
2024-03-09T02:04:03.104Z,22.90
2024-03-09T02:09:09.181Z,22.80
2024-03-09T02:14:13.899Z,22.80
2024-03-09T02:19:18.380Z,22.70
2024-03-09T02:24:25.110Z,22.60
2024-03-09T02:29:28.989Z,22.60
2024-03-09T02:34:33.457Z,22.50
2024-03-09T02:39:38.263Z,22.40
2024-03-09T02:44:43.537Z,22.30
2024-03-09T02:49:47.556Z,22.40
2024-03-09T02:54:51.769Z,22.50
2024-03-09T03:00:01.644Z,22.50
2024-03-09T03:05:06.231Z,22.60
2024-03-09T03:10:13.705Z,22.90
2024-03-09T03:15:17.507Z,23.10
2024-03-09T03:20:23.036Z,23.10
2024-03-09T03:25:27.594Z,23.20
2024-03-09T03:30:31.604Z,23.00
2024-03-09T03:35:35.554Z,22.70
2024-03-09T03:40:39.691Z,22.50
2024-03-09T03:45:43.701Z,22.50
2024-03-09T03:50:47.681Z,22.60
2024-03-09T03:55:53.010Z,22.40
2024-03-09T04:00:59.764Z,22.30
2024-03-09T04:06:04.398Z,22.40
2024-03-09T04:11:08.391Z,22.50
2024-03-09T04:16:12.711Z,22.50
2024-03-09T04:21:18.077Z,22.60
2024-03-09T04:26:22.792Z,22.70
2024-03-09T04:31:26.891Z,23.00
2024-03-09T04:36:31.012Z,23.00
2024-03-09T04:41:34.815Z,23.00
2024-03-09T04:46:40.616Z,23.00
2024-03-09T04:51:45.233Z,22.80
2024-03-09T04:56:49.166Z,22.60
2024-03-09T05:01:53.223Z,22.60
2024-03-09T05:06:57.125Z,22.50
2024-03-09T05:12:01.089Z,22.50
2024-03-09T05:17:05.052Z,22.70
2024-03-09T05:22:09.568Z,22.60
2024-03-09T05:27:13.559Z,22.50
2024-03-09T05:32:19.949Z,22.40
2024-03-09T05:37:24.592Z,22.30
2024-03-09T05:42:28.404Z,22.30
2024-03-09T05:47:32.496Z,22.30
2024-03-09T05:52:36.623Z,22.40
2024-03-09T05:57:44.613Z,22.40
2024-03-09T06:02:51.613Z,22.50
2024-03-09T06:07:59.505Z,22.50
2024-03-09T06:13:06.349Z,22.40
2024-03-09T06:18:10.981Z,22.40
2024-03-09T06:23:15.773Z,22.30
2024-03-09T06:28:19.657Z,22.40
2024-03-09T06:33:23.946Z,22.30
2024-03-09T06:38:30.893Z,22.20
2024-03-09T06:43:35.074Z,22.10
2024-03-09T06:48:39.368Z,22.10
2024-03-09T06:53:44.986Z,22.10
2024-03-09T06:58:49.856Z,22.00
2024-03-09T07:03:53.838Z,22.00
2024-03-09T07:08:59.415Z,22.20
2024-03-09T07:14:06.137Z,22.30
2024-03-09T07:19:11.036Z,22.50
2024-03-09T07:24:15.738Z,22.60
2024-03-09T07:29:22.333Z,22.60
2024-03-09T07:34:26.923Z,22.70
2024-03-09T07:39:31.652Z,22.60
2024-03-09T07:44:35.644Z,22.70
2024-03-09T07:49:39.966Z,22.60
2024-03-09T07:54:43.956Z,22.50
2024-03-09T07:59:48.149Z,22.40
2024-03-09T08:04:55.937Z,22.50
2024-03-09T08:09:59.852Z,22.50
2024-03-09T08:15:07.122Z,22.50
2024-03-09T08:20:15.895Z,22.50
2024-03-09T08:25:27.012Z,22.50
2024-03-09T08:30:32.946Z,22.50
2024-03-09T08:35:36.902Z,22.60
2024-03-09T08:40:41.905Z,22.50
2024-03-09T08:45:47.013Z,22.60
2024-03-09T08:50:50.783Z,22.60
2024-03-09T08:55:55.215Z,22.50
2024-03-09T09:00:59.065Z,22.50
2024-03-09T09:06:04.781Z,22.60
2024-03-09T09:11:14.775Z,22.70
2024-03-09T09:16:19.585Z,22.80
2024-03-09T09:21:23.433Z,23.00
2024-03-09T09:26:28.279Z,23.00
2024-03-09T09:31:34.530Z,23.30
2024-03-09T09:36:41.840Z,23.40
2024-03-09T09:41:45.790Z,23.50
2024-03-09T09:46:49.959Z,23.40
2024-03-09T09:52:00.213Z,23.20
2024-03-09T09:57:04.574Z,23.10
2024-03-09T10:02:09.334Z,23.00
2024-03-09T10:07:13.997Z,23.00
2024-03-09T10:12:22.655Z,23.00
2024-03-09T10:17:28.336Z,23.00
2024-03-09T10:22:32.384Z,23.00
2024-03-09T10:27:37.169Z,23.00
2024-03-09T10:32:45.150Z,23.00
2024-03-09T10:37:57.560Z,23.10
2024-03-09T10:43:03.562Z,23.30
2024-03-09T10:48:11.742Z,23.50
2024-03-09T10:53:26.876Z,23.30
2024-03-09T10:58:33.992Z,23.30
2024-03-09T11:03:39.226Z,23.20
2024-03-09T11:08:44.914Z,23.10
2024-03-09T11:13:50.204Z,23.10
2024-03-09T11:18:58.744Z,23.20
2024-03-09T11:24:09.548Z,23.40
2024-03-09T11:29:14.751Z,23.50
2024-03-09T11:34:22.883Z,23.70
2024-03-09T11:39:32.728Z,23.70
2024-03-09T11:44:41.518Z,23.60
2024-03-09T11:49:49.176Z,23.60
2024-03-09T11:54:53.176Z,23.70
2024-03-09T12:07:11.126Z,23.60
2024-03-09T12:12:16.715Z,23.60
2024-03-09T12:17:21.773Z,23.70
2024-03-09T12:22:26.129Z,23.90
2024-03-09T12:27:29.929Z,23.90
2024-03-09T12:32:35.267Z,23.80
2024-03-09T12:37:40.676Z,23.70
2024-03-09T12:42:45.135Z,23.90
2024-03-09T12:47:51.810Z,23.70
2024-03-09T12:52:55.838Z,23.70
2024-03-09T12:58:01.274Z,23.50
2024-03-09T13:03:06.439Z,23.50
2024-03-09T13:08:13.456Z,23.60
2024-03-09T13:13:18.029Z,23.40
2024-03-09T13:18:23.635Z,23.60
2024-03-09T13:23:27.420Z,23.60
2024-03-09T13:28:32.417Z,23.60
2024-03-09T13:33:43.210Z,23.20
2024-03-09T13:38:50.129Z,23.10
2024-03-09T13:43:53.992Z,23.10
2024-03-09T13:48:58.416Z,23.10
2024-03-09T13:54:02.076Z,23.00
2024-03-09T13:59:15.034Z,23.00
2024-03-09T14:04:20.524Z,23.00
2024-03-09T14:09:31.733Z,23.00
2024-03-09T14:14:39.979Z,23.00
2024-03-09T14:19:43.845Z,23.00
2024-03-09T14:24:48.184Z,23.00
2024-03-09T14:29:52.114Z,23.10
2024-03-09T14:34:55.886Z,23.30
2024-03-09T14:40:01.683Z,23.50
2024-03-09T14:45:10.270Z,23.70
2024-03-09T14:50:16.036Z,23.90
2024-03-09T14:55:28.239Z,23.80
2024-03-09T15:00:44.568Z,23.70
2024-03-09T15:05:56.372Z,23.60
2024-03-09T15:11:00.807Z,23.60
2024-03-09T15:16:07.244Z,23.60
2024-03-09T15:21:11.317Z,23.40
2024-03-09T15:26:15.485Z,23.40
2024-03-09T15:31:19.291Z,23.40
2024-03-09T15:36:23.801Z,23.40
2024-03-09T15:41:29.841Z,23.30
2024-03-09T15:46:37.197Z,23.30
2024-03-09T15:51:41.443Z,23.30
2024-03-09T15:56:48.797Z,23.30
2024-03-09T16:01:54.211Z,23.30
2024-03-09T16:07:01.212Z,23.50
2024-03-09T16:12:05.465Z,23.20
2024-03-09T16:17:09.175Z,23.30
2024-03-09T16:22:13.061Z,23.20
2024-03-09T16:27:16.796Z,23.30
2024-03-09T16:32:20.534Z,23.30
2024-03-09T16:37:24.935Z,23.40
2024-03-09T16:42:28.678Z,23.60
2024-03-09T16:47:32.507Z,23.70
2024-03-09T16:52:36.252Z,23.80
2024-03-09T16:57:46.779Z,23.80
2024-03-09T17:02:54.222Z,23.80
2024-03-09T17:08:02.394Z,23.70
2024-03-09T17:13:06.601Z,23.80
2024-03-09T17:18:10.704Z,23.60
2024-03-09T17:23:19.267Z,23.50
2024-03-09T17:28:23.271Z,23.40
2024-03-09T17:33:27.109Z,23.30
2024-03-09T17:38:31.991Z,23.30
2024-03-09T17:43:35.828Z,23.20
2024-03-09T17:48:39.725Z,23.10
2024-03-09T17:53:44.061Z,23.10
2024-03-09T17:58:48.591Z,23.00
2024-03-09T18:03:52.716Z,23.00
2024-03-09T18:08:56.750Z,22.90
2024-03-09T18:14:03.737Z,23.00
2024-03-09T18:19:08.661Z,23.00
2024-03-09T18:24:14.258Z,23.20
2024-03-09T18:29:18.379Z,23.40
2024-03-09T18:34:22.180Z,23.50
2024-03-09T18:39:26.122Z,23.70
2024-03-09T18:44:30.185Z,23.60
2024-03-09T18:49:36.520Z,23.50
2024-03-09T18:54:40.707Z,23.60
2024-03-09T18:59:48.513Z,23.50
2024-03-09T19:04:52.198Z,23.50
2024-03-09T19:09:56.723Z,23.40
2024-03-09T19:15:01.071Z,23.30
2024-03-09T19:20:12.049Z,23.30
2024-03-09T19:25:17.180Z,23.30
2024-03-09T19:30:22.737Z,23.30
2024-03-09T19:35:27.981Z,23.30
2024-03-09T19:40:32.617Z,23.30
2024-03-09T19:45:37.477Z,23.10
2024-03-09T19:50:41.217Z,23.10
2024-03-09T19:55:45.288Z,23.00
2024-03-09T20:00:49.162Z,23.00
2024-03-09T20:05:52.825Z,23.00
2024-03-09T20:10:56.699Z,22.90
2024-03-09T20:16:01.516Z,23.00
2024-03-09T20:21:06.318Z,23.10
2024-03-09T20:26:12.839Z,23.30
2024-03-09T20:31:16.770Z,23.40
2024-03-09T20:36:21.262Z,23.40
2024-03-09T20:41:25.212Z,23.40
2024-03-09T20:46:29.161Z,23.20
2024-03-09T20:51:36.497Z,23.20
2024-03-09T20:56:40.582Z,23.20
2024-03-09T21:01:44.322Z,23.20
2024-03-09T21:06:48.692Z,23.10
2024-03-09T21:11:52.630Z,23.10
2024-03-09T21:16:57.079Z,23.20
2024-03-09T21:22:01.002Z,23.00
2024-03-09T21:27:05.468Z,23.00
2024-03-09T21:32:09.267Z,23.20
2024-03-09T21:37:12.966Z,23.40
2024-03-09T21:42:19.026Z,23.60
2024-03-09T21:47:22.909Z,23.60
2024-03-09T21:52:26.647Z,23.60
2024-03-09T21:57:30.379Z,23.70
2024-03-09T22:02:34.138Z,23.50
2024-03-09T22:07:38.046Z,23.50
2024-03-09T22:12:41.746Z,23.40
2024-03-09T22:17:45.836Z,23.60
2024-03-09T22:22:49.824Z,23.50
2024-03-09T22:27:53.646Z,23.50
2024-03-09T22:32:57.835Z,23.40
2024-03-09T22:38:01.744Z,23.40
2024-03-09T22:43:05.774Z,23.30
2024-03-09T22:48:10.258Z,23.30
2024-03-09T22:53:15.779Z,23.30
2024-03-09T22:58:19.639Z,23.20
2024-03-09T23:03:23.380Z,23.20
2024-03-09T23:08:28.961Z,23.20
2024-03-09T23:13:34.066Z,23.10
2024-03-09T23:18:38.148Z,23.20
2024-03-09T23:23:41.870Z,23.30
2024-03-09T23:28:45.550Z,23.60
2024-03-09T23:33:50.772Z,23.70
2024-03-09T23:38:54.603Z,23.80
2024-03-09T23:43:59.397Z,23.70
2024-03-09T23:49:03.165Z,23.70
2024-03-09T23:54:07.876Z,23.60
2024-03-09T23:59:11.512Z,23.60
